createdAt,value
2023-02-17T00:01:15.131Z,54.56
2023-02-17T00:03:41.552Z,54.72
2023-02-17T00:06:07.993Z,54.25
2023-02-17T00:08:34.582Z,54.57
2023-02-17T00:11:01.210Z,54.76
2023-02-17T00:13:27.850Z,54.44
2023-02-17T00:15:54.270Z,54.61
2023-02-17T00:18:20.774Z,54.36
2023-02-17T00:20:47.225Z,54.31
2023-02-17T00:23:13.753Z,54.52
2023-02-17T00:25:40.124Z,54.55
2023-02-17T00:28:07.069Z,54.28
2023-02-17T00:30:33.381Z,54.49
2023-02-17T00:32:59.871Z,54.50
2023-02-17T00:35:26.211Z,54.32
2023-02-17T00:37:52.615Z,54.28
2023-02-17T00:40:18.910Z,54.08
2023-02-17T00:42:45.274Z,54.31
2023-02-17T00:45:11.657Z,54.56
2023-02-17T00:47:38.244Z,54.46
2023-02-17T00:50:05.207Z,54.37
2023-02-17T00:52:31.587Z,54.34
2023-02-17T00:54:58.187Z,54.55
2023-02-17T00:57:25.005Z,54.45
2023-02-17T00:59:51.479Z,54.41
2023-02-17T01:02:18.238Z,54.49
2023-02-17T01:04:44.665Z,54.07
2023-02-17T01:07:11.373Z,54.53
2023-02-17T01:09:37.745Z,54.50
2023-02-17T01:12:04.081Z,54.22
2023-02-17T01:14:30.988Z,54.35
2023-02-17T01:16:57.402Z,54.44
2023-02-17T01:19:23.792Z,54.16
2023-02-17T01:21:50.261Z,54.28
2023-02-17T01:24:16.552Z,54.31
2023-02-17T01:26:43.224Z,54.63
2023-02-17T01:29:09.885Z,54.20
2023-02-17T01:31:36.416Z,54.24
2023-02-17T01:34:02.890Z,54.21
2023-02-17T01:36:29.209Z,54.30
2023-02-17T01:38:55.647Z,54.59
2023-02-17T01:41:21.964Z,54.25
2023-02-17T01:43:48.294Z,54.39
2023-02-17T01:46:15.201Z,54.24
2023-02-17T01:48:41.570Z,54.44
2023-02-17T01:51:08.046Z,54.22
2023-02-17T01:53:34.393Z,54.47
2023-02-17T01:56:01.014Z,54.46
2023-02-17T01:58:27.358Z,54.18
2023-02-17T02:00:53.776Z,54.47
2023-02-17T02:03:20.265Z,54.14
2023-02-17T02:05:47.738Z,54.39
2023-02-17T02:08:14.093Z,54.45
2023-02-17T02:10:42.103Z,54.56
2023-02-17T02:13:09.325Z,54.50
2023-02-17T02:15:36.121Z,54.54
2023-02-17T02:18:02.574Z,54.42
2023-02-17T02:20:29.111Z,54.34
2023-02-17T02:22:55.411Z,54.56
2023-02-17T02:25:21.768Z,54.47
2023-02-17T02:27:48.280Z,54.34
2023-02-17T02:30:14.870Z,54.49
2023-02-17T02:32:41.277Z,54.56
2023-02-17T02:35:07.693Z,54.33
2023-02-17T02:37:34.258Z,54.43
2023-02-17T02:40:00.617Z,54.47
2023-02-17T02:42:27.354Z,54.37
2023-02-17T02:44:53.757Z,54.59
2023-02-17T02:47:20.222Z,54.61
2023-02-17T02:49:46.577Z,54.56
2023-02-17T02:52:12.965Z,54.64
2023-02-17T02:54:39.352Z,54.59
2023-02-17T02:57:05.846Z,54.53
2023-02-17T02:59:32.542Z,54.47
2023-02-17T03:01:59.208Z,54.48
2023-02-17T03:04:25.586Z,54.36
2023-02-17T03:06:51.970Z,54.44
2023-02-17T03:09:18.330Z,54.48
2023-02-17T03:11:44.693Z,54.49
2023-02-17T03:14:11.042Z,54.70
2023-02-17T03:16:37.536Z,54.79
2023-02-17T03:19:04.059Z,54.73
2023-02-17T03:21:30.921Z,54.47
2023-02-17T03:23:57.261Z,54.74
2023-02-17T03:26:24.121Z,54.68
2023-02-17T03:28:51.497Z,54.55
2023-02-17T03:31:17.822Z,54.79
2023-02-17T03:33:44.272Z,54.80
2023-02-17T03:36:10.811Z,54.65
2023-02-17T03:38:37.275Z,54.59
2023-02-17T03:41:03.668Z,54.90
2023-02-17T03:43:30.117Z,54.85
2023-02-17T03:45:56.544Z,54.78
2023-02-17T03:48:23.484Z,54.84
2023-02-17T03:50:49.920Z,54.78
2023-02-17T03:53:16.252Z,54.96
2023-02-17T03:55:43.168Z,55.05
2023-02-17T03:58:09.839Z,55.07
2023-02-17T04:00:36.224Z,55.04
2023-02-17T04:03:02.589Z,55.07
2023-02-17T04:05:29.398Z,54.91
2023-02-17T04:07:55.748Z,55.01
2023-02-17T04:10:22.380Z,54.93
2023-02-17T04:12:49.108Z,55.19
2023-02-17T04:15:15.483Z,55.08
2023-02-17T04:17:41.994Z,55.14
2023-02-17T04:20:08.299Z,54.83
2023-02-17T04:22:34.664Z,54.90
2023-02-17T04:25:01.211Z,55.01
2023-02-17T04:27:27.927Z,55.14
2023-02-17T04:29:54.417Z,55.20
2023-02-17T04:32:21.084Z,55.18
2023-02-17T04:34:47.643Z,54.86
2023-02-17T04:37:14.118Z,55.17
2023-02-17T04:39:40.544Z,55.11
2023-02-17T04:42:07.380Z,55.05
2023-02-17T04:44:33.731Z,55.19
2023-02-17T04:47:00.129Z,55.04
2023-02-17T04:49:26.492Z,55.28
2023-02-17T04:51:53.087Z,55.03
2023-02-17T04:54:19.497Z,54.94
2023-02-17T04:56:45.976Z,55.31
2023-02-17T04:59:12.259Z,55.42
2023-02-17T05:01:39.176Z,55.39
2023-02-17T05:04:06.380Z,55.36
2023-02-17T05:06:32.711Z,55.31
2023-02-17T05:08:59.097Z,55.36
2023-02-17T05:11:25.388Z,55.47
2023-02-17T05:13:51.815Z,55.30
2023-02-17T05:16:18.231Z,55.31
2023-02-17T05:18:45.036Z,55.23
2023-02-17T05:21:11.828Z,55.36
2023-02-17T05:23:38.527Z,55.43
2023-02-17T05:26:05.396Z,55.38
2023-02-17T05:28:31.866Z,55.57
2023-02-17T05:30:58.382Z,55.40
2023-02-17T05:33:25.001Z,55.31
2023-02-17T05:35:51.409Z,55.43
2023-02-17T05:38:17.779Z,55.67
2023-02-17T05:40:44.225Z,55.58
2023-02-17T05:43:11.076Z,55.54
2023-02-17T05:45:37.631Z,55.69
2023-02-17T05:48:04.005Z,55.74
2023-02-17T05:50:30.399Z,55.50
2023-02-17T05:52:56.671Z,55.42
2023-02-17T05:55:23.000Z,55.70
2023-02-17T05:57:49.566Z,55.64
2023-02-17T06:00:16.030Z,55.58
2023-02-17T06:02:42.335Z,55.83
2023-02-17T06:05:08.931Z,55.81
2023-02-17T06:07:35.412Z,55.71
2023-02-17T06:10:01.780Z,55.63
2023-02-17T06:12:28.093Z,55.70
2023-02-17T06:14:54.514Z,55.72
2023-02-17T06:17:20.864Z,55.95
2023-02-17T06:19:47.191Z,55.89
2023-02-17T06:22:13.526Z,55.75
2023-02-17T06:24:39.963Z,55.69
2023-02-17T06:27:06.466Z,55.90
2023-02-17T06:29:33.197Z,55.80
2023-02-17T06:31:59.654Z,56.10
2023-02-17T06:34:26.260Z,55.94
2023-02-17T06:36:52.682Z,56.10
2023-02-17T06:39:19.633Z,55.91
2023-02-17T06:41:45.983Z,56.11
2023-02-17T06:44:12.297Z,56.06
2023-02-17T06:46:38.866Z,55.89
2023-02-17T06:49:05.484Z,56.06
2023-02-17T06:51:31.838Z,56.06
2023-02-17T06:53:58.698Z,57.12
2023-02-17T06:56:25.049Z,57.01
2023-02-17T06:58:51.426Z,56.97
2023-02-17T07:01:17.800Z,56.82
2023-02-17T07:03:44.485Z,56.88
2023-02-17T07:06:11.507Z,56.78
2023-02-17T07:08:37.873Z,56.77
2023-02-17T07:11:04.265Z,56.57
2023-02-17T07:13:30.891Z,56.64
2023-02-17T07:15:57.214Z,56.76
2023-02-17T07:18:23.618Z,56.51
2023-02-17T07:20:50.055Z,56.90
2023-02-17T07:23:16.434Z,56.68
2023-02-17T07:25:42.786Z,56.70
2023-02-17T07:28:09.528Z,56.55
2023-02-17T07:30:36.166Z,56.72
2023-02-17T07:33:02.541Z,56.88
2023-02-17T07:35:29.200Z,56.45
2023-02-17T07:37:55.803Z,56.60
2023-02-17T07:40:22.201Z,56.81
2023-02-17T07:42:48.707Z,56.72
2023-02-17T07:45:15.080Z,56.63
2023-02-17T07:47:41.729Z,56.88
2023-02-17T07:50:08.432Z,56.72
2023-02-17T07:52:35.172Z,56.92
2023-02-17T07:55:01.528Z,56.91
2023-02-17T07:57:28.009Z,56.78
2023-02-17T07:59:54.675Z,56.69
2023-02-17T08:02:21.054Z,56.95
2023-02-17T08:04:47.427Z,56.80
2023-02-17T08:07:13.829Z,56.84
2023-02-17T08:09:40.786Z,56.77
2023-02-17T08:12:07.254Z,56.74
2023-02-17T08:14:33.701Z,56.86
2023-02-17T08:17:00.715Z,56.95
2023-02-17T08:19:33.808Z,57.04
2023-02-17T08:22:09.709Z,57.42
2023-02-17T08:24:36.159Z,57.26
2023-02-17T08:27:02.608Z,57.15
2023-02-17T08:29:29.109Z,57.21
2023-02-17T08:31:55.660Z,57.16
2023-02-17T08:34:22.118Z,56.84
2023-02-17T08:36:48.485Z,57.20
2023-02-17T08:39:14.742Z,56.92
2023-02-17T08:41:41.233Z,57.23
2023-02-17T08:44:07.647Z,57.14
2023-02-17T08:46:34.181Z,57.17
2023-02-17T08:49:00.621Z,57.08
2023-02-17T08:51:27.158Z,57.25
2023-02-17T08:53:53.621Z,57.03
2023-02-17T08:56:19.929Z,57.04
2023-02-17T08:58:46.787Z,57.02
2023-02-17T09:01:13.476Z,57.02
2023-02-17T09:03:40.143Z,57.10
2023-02-17T09:06:06.949Z,57.34
2023-02-17T09:08:33.552Z,57.07
2023-02-17T09:10:59.888Z,57.16
2023-02-17T09:13:26.350Z,57.26
2023-02-17T09:15:52.729Z,57.40
2023-02-17T09:18:19.214Z,57.31
2023-02-17T09:20:45.599Z,56.94
2023-02-17T09:23:12.462Z,57.42
2023-02-17T09:25:38.966Z,57.17
2023-02-17T09:28:05.695Z,57.25
2023-02-17T09:30:32.157Z,57.30
2023-02-17T09:32:58.636Z,57.27
2023-02-17T09:35:24.968Z,57.43
2023-02-17T09:37:51.294Z,57.29
2023-02-17T09:40:17.904Z,57.57
2023-02-17T09:42:45.022Z,57.50
2023-02-17T09:45:12.901Z,57.23
2023-02-17T09:47:39.406Z,57.33
2023-02-17T09:50:06.189Z,57.31
2023-02-17T09:52:32.511Z,57.63
2023-02-17T09:54:59.027Z,57.68
2023-02-17T09:57:25.673Z,57.54
2023-02-17T09:59:52.798Z,57.51
2023-02-17T10:02:19.254Z,58.28
2023-02-17T10:04:45.871Z,57.93
2023-02-17T10:07:12.216Z,57.71
2023-02-17T10:09:39.155Z,57.51
2023-02-17T10:12:05.584Z,57.54
2023-02-17T10:14:31.948Z,57.71
2023-02-17T10:16:58.324Z,57.68
2023-02-17T10:19:25.328Z,57.64
2023-02-17T10:21:51.669Z,57.81
2023-02-17T10:24:18.310Z,57.73
2023-02-17T10:26:45.372Z,57.40
2023-02-17T10:29:12.263Z,57.53
2023-02-17T10:31:39.590Z,57.13
2023-02-17T10:34:06.674Z,57.14
2023-02-17T10:36:33.279Z,57.31
2023-02-17T10:38:59.553Z,57.15
2023-02-17T10:41:26.274Z,57.25
2023-02-17T10:43:52.810Z,57.25
2023-02-17T10:46:19.171Z,57.03
2023-02-17T10:48:45.475Z,56.99
2023-02-17T10:51:11.814Z,57.10
2023-02-17T10:53:38.160Z,57.02
2023-02-17T10:56:04.973Z,57.25
2023-02-17T10:58:32.133Z,57.08
2023-02-17T11:00:58.576Z,56.94
2023-02-17T11:03:24.986Z,57.38
2023-02-17T11:05:51.547Z,57.36
2023-02-17T11:08:18.270Z,57.24
2023-02-17T11:10:44.646Z,57.36
2023-02-17T11:13:11.342Z,57.45
2023-02-17T11:15:38.258Z,57.57
2023-02-17T11:18:04.606Z,57.53
2023-02-17T11:20:31.081Z,57.35
2023-02-17T11:22:57.654Z,57.61
2023-02-17T11:25:23.973Z,57.71
2023-02-17T11:27:50.334Z,57.81
2023-02-17T11:30:16.657Z,57.69
2023-02-17T11:32:43.655Z,57.54
2023-02-17T11:35:10.484Z,57.71
2023-02-17T11:37:37.481Z,57.86
2023-02-17T11:40:03.767Z,57.91
2023-02-17T11:42:30.172Z,57.88
2023-02-17T11:44:56.550Z,57.91
2023-02-17T11:47:23.614Z,57.99
2023-02-17T11:49:50.083Z,58.02
2023-02-17T11:52:16.490Z,58.15
2023-02-17T11:54:43.581Z,58.67
2023-02-17T11:57:11.084Z,59.62
2023-02-17T11:59:37.507Z,59.69
2023-02-17T12:02:04.089Z,60.54
2023-02-17T12:04:30.737Z,60.47
2023-02-17T12:06:57.046Z,60.61
2023-02-17T12:09:23.361Z,60.46
2023-02-17T12:11:49.748Z,60.64
2023-02-17T12:14:16.088Z,60.26
2023-02-17T12:16:42.973Z,60.46
2023-02-17T12:19:09.569Z,60.50
2023-02-17T12:21:35.920Z,60.55
2023-02-17T12:24:02.290Z,60.48
2023-02-17T12:26:28.992Z,60.61
2023-02-17T12:28:55.395Z,60.67
2023-02-17T12:31:21.840Z,61.08
2023-02-17T12:33:48.606Z,60.77
2023-02-17T12:36:15.179Z,60.74
2023-02-17T12:38:42.103Z,60.52
2023-02-17T12:41:08.967Z,60.61
2023-02-17T12:43:35.632Z,60.76
2023-02-17T12:46:01.978Z,60.88
2023-02-17T12:48:28.330Z,61.09
2023-02-17T12:50:55.145Z,60.92
2023-02-17T12:53:21.989Z,61.06
2023-02-17T12:55:49.013Z,60.80
2023-02-17T12:58:15.927Z,61.00
2023-02-17T13:00:42.519Z,60.88
2023-02-17T13:03:08.893Z,60.87
2023-02-17T13:05:35.264Z,61.00
2023-02-17T13:08:01.711Z,60.76
2023-02-17T13:10:28.718Z,60.92
2023-02-17T13:12:55.126Z,61.12
2023-02-17T13:15:21.503Z,61.70
2023-02-17T13:17:47.980Z,61.41
2023-02-17T13:20:14.535Z,61.11
2023-02-17T13:22:40.917Z,61.21
2023-02-17T13:25:07.851Z,61.32
2023-02-17T13:27:34.388Z,61.10
2023-02-17T13:30:00.964Z,60.87
2023-02-17T13:32:27.652Z,61.28
2023-02-17T13:34:54.701Z,61.15
2023-02-17T13:37:21.112Z,61.37
2023-02-17T13:39:48.149Z,61.26
2023-02-17T13:42:14.516Z,61.44
2023-02-17T13:44:40.946Z,61.45
2023-02-17T13:47:07.370Z,61.40
2023-02-17T13:49:33.730Z,61.65
2023-02-17T13:52:00.335Z,61.59
2023-02-17T13:54:26.714Z,61.62
2023-02-17T13:56:52.990Z,61.69
2023-02-17T13:59:19.289Z,61.62
2023-02-17T14:01:46.300Z,61.58
2023-02-17T14:04:13.005Z,61.58
2023-02-17T14:06:39.590Z,61.42
2023-02-17T14:09:06.291Z,61.76
2023-02-17T14:11:33.214Z,61.55
2023-02-17T14:13:59.532Z,61.60
2023-02-17T14:16:26.139Z,61.50
2023-02-17T14:18:52.590Z,61.32
2023-02-17T14:21:19.070Z,61.63
2023-02-17T14:23:45.552Z,61.61
2023-02-17T14:26:11.993Z,61.53
2023-02-17T14:28:39.030Z,61.44
2023-02-17T14:31:05.707Z,61.41
2023-02-17T14:33:32.585Z,61.34
2023-02-17T14:35:59.019Z,61.21
2023-02-17T14:38:25.637Z,61.18
2023-02-17T14:40:52.114Z,61.42
2023-02-17T14:43:18.566Z,61.34
2023-02-17T14:45:45.275Z,61.30
2023-02-17T14:48:11.750Z,61.12
2023-02-17T14:50:38.262Z,60.87
2023-02-17T14:53:05.141Z,61.07
2023-02-17T14:55:31.520Z,61.22
2023-02-17T14:57:57.886Z,61.14
2023-02-17T15:00:25.295Z,60.77
2023-02-17T15:02:53.190Z,60.85
2023-02-17T15:05:19.786Z,60.84
2023-02-17T15:07:46.136Z,60.83
2023-02-17T15:10:12.479Z,61.10
2023-02-17T15:12:40.285Z,61.01
2023-02-17T15:15:06.673Z,61.10
2023-02-17T15:17:33.041Z,60.88
2023-02-17T15:19:59.435Z,60.94
2023-02-17T15:22:25.761Z,61.02
2023-02-17T15:24:52.131Z,60.82
2023-02-17T15:27:18.914Z,61.19
2023-02-17T15:29:45.276Z,61.02
2023-02-17T15:32:11.741Z,60.81
2023-02-17T15:34:38.173Z,61.06
2023-02-17T15:37:04.582Z,60.90
2023-02-17T15:39:31.015Z,61.15
2023-02-17T15:41:57.673Z,61.08
2023-02-17T15:44:24.637Z,61.10
2023-02-17T15:46:51.635Z,61.12
2023-02-17T15:49:18.061Z,61.27
2023-02-17T15:51:45.096Z,61.08
2023-02-17T15:54:11.837Z,61.12
2023-02-17T15:56:38.697Z,60.92
2023-02-17T15:59:05.207Z,60.85
2023-02-17T16:01:31.794Z,60.94
2023-02-17T16:03:58.147Z,61.03
2023-02-17T16:06:24.479Z,61.14
2023-02-17T16:08:50.837Z,60.99
2023-02-17T16:11:17.121Z,61.21
2023-02-17T16:13:43.600Z,61.11
2023-02-17T16:16:10.225Z,61.25
2023-02-17T16:18:36.558Z,60.90
2023-02-17T16:21:02.836Z,61.09
2023-02-17T16:23:29.444Z,61.19
2023-02-17T16:25:55.778Z,61.22
2023-02-17T16:28:22.152Z,61.05
2023-02-17T16:30:48.582Z,61.16
2023-02-17T16:33:15.110Z,61.15
2023-02-17T16:35:41.574Z,61.28
2023-02-17T16:38:08.465Z,61.16
2023-02-17T16:40:34.742Z,61.39
2023-02-17T16:43:01.323Z,61.37
2023-02-17T16:45:28.126Z,61.19
2023-02-17T16:47:54.468Z,61.19
2023-02-17T16:50:20.814Z,61.37
2023-02-17T16:52:47.157Z,61.04
2023-02-17T16:55:13.558Z,61.51
2023-02-17T16:57:40.061Z,61.67
2023-02-17T17:00:06.757Z,61.35
2023-02-17T17:02:33.230Z,61.64
2023-02-17T17:04:59.683Z,61.39
2023-02-17T17:07:26.230Z,61.27
2023-02-17T17:10:14.635Z,61.38
2023-02-17T17:12:39.435Z,61.66
2023-02-17T17:15:05.791Z,61.51
2023-02-17T17:17:32.149Z,61.70
2023-02-17T17:19:58.802Z,61.63
2023-02-17T17:22:25.163Z,61.62
2023-02-17T17:24:51.553Z,61.45
2023-02-17T17:27:17.950Z,61.73
2023-02-17T17:29:44.954Z,61.75
2023-02-17T17:32:11.838Z,61.89
2023-02-17T17:34:38.298Z,61.58
2023-02-17T17:37:05.145Z,61.41
2023-02-17T17:39:31.874Z,61.75
2023-02-17T17:41:58.266Z,61.79
2023-02-17T17:44:24.688Z,61.66
2023-02-17T17:46:51.045Z,61.69
2023-02-17T17:49:17.392Z,61.86
2023-02-17T17:51:43.796Z,61.72
2023-02-17T17:54:10.358Z,61.78
2023-02-17T17:56:36.702Z,61.86
2023-02-17T17:59:03.059Z,61.86
2023-02-17T18:01:29.517Z,61.78
2023-02-17T18:03:56.067Z,61.92
2023-02-17T18:06:22.866Z,61.85
2023-02-17T18:08:49.563Z,61.69
2023-02-17T18:11:16.292Z,61.94
2023-02-17T18:13:42.684Z,61.79
2023-02-17T18:16:09.917Z,61.68
2023-02-17T18:18:36.542Z,61.71
2023-02-17T18:21:03.114Z,61.95
2023-02-17T18:23:29.760Z,62.03
2023-02-17T18:25:56.082Z,61.85
2023-02-17T18:28:22.465Z,61.89
2023-02-17T18:30:48.892Z,61.91
2023-02-17T18:33:15.218Z,61.96
2023-02-17T18:35:41.784Z,61.76
2023-02-17T18:38:08.156Z,61.98
2023-02-17T18:40:34.501Z,62.02
2023-02-17T18:43:01.516Z,61.89
2023-02-17T18:45:27.917Z,61.64
2023-02-17T18:47:54.236Z,61.87
2023-02-17T18:50:21.594Z,62.00
2023-02-17T18:52:48.012Z,61.96
2023-02-17T18:55:14.372Z,62.00
2023-02-17T18:57:41.299Z,61.71
2023-02-17T19:00:07.629Z,61.57
2023-02-17T19:02:34.080Z,61.94
2023-02-17T19:05:00.526Z,61.91
2023-02-17T19:07:27.354Z,61.67
2023-02-17T19:09:53.773Z,61.89
2023-02-17T19:12:20.134Z,61.72
2023-02-17T19:14:47.044Z,61.94
2023-02-17T19:17:13.800Z,61.91
2023-02-17T19:19:40.344Z,61.62
2023-02-17T19:22:06.751Z,61.61
2023-02-17T19:24:33.066Z,61.87
2023-02-17T19:26:59.377Z,61.79
2023-02-17T19:29:25.810Z,61.80
2023-02-17T19:31:52.274Z,61.84
2023-02-17T19:34:18.695Z,61.94
2023-02-17T19:36:45.018Z,61.79
2023-02-17T19:39:11.373Z,61.88
2023-02-17T19:41:37.737Z,61.94
2023-02-17T19:44:04.461Z,61.57
2023-02-17T19:46:31.201Z,61.92
2023-02-17T19:48:57.896Z,61.61
2023-02-17T19:51:24.328Z,61.48
2023-02-17T19:53:50.648Z,61.64
2023-02-17T19:56:17.006Z,61.84
2023-02-17T19:58:43.409Z,61.70
2023-02-17T20:01:09.848Z,61.52
2023-02-17T20:03:36.294Z,61.50
2023-02-17T20:06:02.647Z,61.80
2023-02-17T20:08:28.977Z,61.71
2023-02-17T20:10:55.321Z,61.78
2023-02-17T20:13:21.632Z,61.70
2023-02-17T20:15:48.654Z,61.47
2023-02-17T20:18:14.990Z,61.63
2023-02-17T20:20:41.479Z,61.83
2023-02-17T20:23:07.876Z,61.48
2023-02-17T20:25:34.781Z,61.73
2023-02-17T20:28:01.417Z,61.68
2023-02-17T20:30:27.854Z,61.60
2023-02-17T20:32:54.642Z,61.70
2023-02-17T20:35:21.701Z,61.56
2023-02-17T20:37:48.150Z,61.60
2023-02-17T20:40:15.144Z,61.64
2023-02-17T20:42:41.580Z,61.49
2023-02-17T20:45:08.143Z,61.36
2023-02-17T20:47:34.570Z,61.32
2023-02-17T20:50:01.273Z,61.32
2023-02-17T20:52:27.938Z,61.32
2023-02-17T20:54:54.384Z,61.36
2023-02-17T20:57:20.780Z,61.35
2023-02-17T20:59:47.181Z,61.35
2023-02-17T21:02:13.769Z,61.30
2023-02-17T21:04:40.179Z,61.37
2023-02-17T21:07:07.118Z,61.30
2023-02-17T21:09:33.544Z,61.28
2023-02-17T21:11:59.961Z,61.36
2023-02-17T21:14:26.433Z,61.10
2023-02-17T21:16:53.543Z,61.17
2023-02-17T21:19:20.020Z,61.29
2023-02-17T21:21:46.726Z,61.31
2023-02-17T21:24:13.073Z,61.29
2023-02-17T21:26:39.854Z,61.39
2023-02-17T21:29:06.238Z,61.12
2023-02-17T21:31:32.677Z,61.13
2023-02-17T21:33:59.452Z,61.15
2023-02-17T21:36:27.462Z,61.03
2023-02-17T21:38:55.421Z,60.99
2023-02-17T21:41:21.807Z,60.98
2023-02-17T21:43:48.182Z,61.20
2023-02-17T21:46:14.567Z,60.71
2023-02-17T21:48:40.986Z,61.05
2023-02-17T21:51:07.348Z,60.80
2023-02-17T21:53:34.197Z,61.01
2023-02-17T21:56:00.972Z,60.74
2023-02-17T21:58:27.355Z,60.85
2023-02-17T22:00:53.711Z,60.74
2023-02-17T22:03:20.292Z,60.93
2023-02-17T22:05:46.938Z,61.00
2023-02-17T22:08:14.128Z,60.88
2023-02-17T22:10:40.963Z,60.91
2023-02-17T22:13:07.599Z,60.69
2023-02-17T22:15:34.112Z,60.90
2023-02-17T22:18:00.605Z,60.58
2023-02-17T22:20:26.966Z,60.88
2023-02-17T22:22:53.328Z,60.87
2023-02-17T22:25:19.982Z,60.73
2023-02-17T22:27:46.547Z,60.55
2023-02-17T22:30:13.095Z,60.59
2023-02-17T22:32:39.507Z,60.69
2023-02-17T22:35:05.883Z,60.59
2023-02-17T22:37:32.185Z,60.42
2023-02-17T22:39:58.466Z,60.48
2023-02-17T22:42:25.073Z,60.57
2023-02-17T22:44:51.445Z,60.36
2023-02-17T22:47:17.805Z,60.52
2023-02-17T22:49:44.221Z,60.57
2023-02-17T22:52:10.634Z,60.35
2023-02-17T22:54:37.207Z,60.50
2023-02-17T22:57:03.575Z,60.24
2023-02-17T22:59:30.213Z,60.37
2023-02-17T23:01:57.085Z,60.24
2023-02-17T23:04:23.546Z,60.19
2023-02-17T23:06:50.009Z,60.28
2023-02-17T23:09:16.410Z,60.21
2023-02-17T23:11:42.767Z,60.07
2023-02-17T23:14:09.147Z,60.42
2023-02-17T23:16:35.773Z,60.29
2023-02-17T23:19:02.144Z,60.43
2023-02-17T23:21:28.598Z,60.03
2023-02-17T23:23:54.937Z,60.20
2023-02-17T23:26:21.253Z,60.30
2023-02-17T23:28:47.617Z,60.30
2023-02-17T23:31:14.174Z,60.34
2023-02-17T23:33:40.603Z,60.02
2023-02-17T23:36:07.383Z,59.95
2023-02-17T23:38:34.092Z,60.25
2023-02-17T23:41:00.374Z,60.17
2023-02-17T23:43:27.572Z,60.04
2023-02-17T23:45:54.042Z,60.31
2023-02-17T23:48:20.461Z,60.15
2023-02-17T23:50:46.907Z,60.24
2023-02-17T23:53:13.224Z,59.89
2023-02-17T23:55:39.731Z,59.97
2023-02-17T23:58:06.043Z,60.19
